createdAt,value
2023-01-19T00:01:48.587Z,94381.75
2023-01-19T00:04:18.437Z,94379.28
2023-01-19T00:06:47.890Z,94380.56
2023-01-19T00:09:17.310Z,94392.69
2023-01-19T00:11:46.781Z,94393.63
2023-01-19T00:14:16.176Z,94386.53
2023-01-19T00:16:46.932Z,94389.97
2023-01-19T00:19:16.546Z,94400.88
2023-01-19T00:21:45.973Z,94402.34
2023-01-19T00:24:15.742Z,94402.91
2023-01-19T00:26:45.208Z,94406.59
2023-01-19T00:29:16.365Z,94411.94
2023-01-19T00:31:47.214Z,94406.34
2023-01-19T00:34:16.942Z,94419.06
2023-01-19T00:36:46.376Z,94421.59
2023-01-19T00:39:16.172Z,94426.97
2023-01-19T00:42:03.148Z,94421.16
2023-01-19T00:44:32.530Z,94425.91
2023-01-19T00:47:04.824Z,94426.72
2023-01-19T00:49:34.252Z,94429.34
2023-01-19T00:52:03.659Z,94429.72
2023-01-19T00:54:33.166Z,94432.22
2023-01-19T00:57:03.410Z,94436.03
2023-01-19T00:59:32.837Z,94436.09
2023-01-19T01:02:03.753Z,94441.94
2023-01-19T01:04:33.654Z,94439.09
2023-01-19T01:07:03.044Z,94440.63
2023-01-19T01:09:33.082Z,94446.34
2023-01-19T01:12:02.488Z,94443.03
2023-01-19T01:14:31.935Z,94445.63
2023-01-19T01:17:02.820Z,94451.50
2023-01-19T01:19:32.577Z,94449.72
2023-01-19T01:22:05.955Z,94456.50
2023-01-19T01:24:35.460Z,94454.25
2023-01-19T01:27:05.230Z,94461.50
2023-01-19T01:29:35.389Z,94459.47
2023-01-19T01:32:06.402Z,94464.94
2023-01-19T01:34:35.874Z,94469.41
2023-01-19T01:37:08.255Z,94465.00
2023-01-19T01:39:38.554Z,94480.03
2023-01-19T01:42:19.995Z,94476.53
2023-01-19T01:44:53.945Z,94477.31
2023-01-19T01:47:33.985Z,94473.44
2023-01-19T01:50:12.497Z,94473.72
2023-01-19T01:53:06.145Z,94483.69
2023-01-19T01:55:42.803Z,94477.53
2023-01-19T01:58:13.886Z,94481.19
2023-01-19T02:01:01.803Z,94487.88
2023-01-19T02:03:38.816Z,94489.16
2023-01-19T02:06:10.426Z,94493.22
2023-01-19T02:09:06.308Z,94501.91
2023-01-19T02:11:54.709Z,94497.88
2023-01-19T02:14:24.295Z,94485.25
2023-01-19T02:16:56.301Z,94485.28
2023-01-19T02:19:37.623Z,94489.38
2023-01-19T02:22:17.791Z,94493.22
2023-01-19T02:24:49.802Z,94497.66
2023-01-19T02:27:20.288Z,94501.88
2023-01-19T02:29:49.879Z,94500.69
2023-01-19T02:32:19.386Z,94502.66
2023-01-19T02:34:48.845Z,94491.16
2023-01-19T02:37:19.583Z,94499.88
2023-01-19T02:39:55.173Z,94496.88
2023-01-19T02:42:30.959Z,94503.09
2023-01-19T02:45:00.582Z,94510.25
2023-01-19T02:47:40.168Z,94509.88
2023-01-19T02:50:50.561Z,94508.94
2023-01-19T02:54:12.201Z,94518.09
2023-01-19T02:57:21.265Z,94515.16
2023-01-19T03:00:11.931Z,94524.88
2023-01-19T03:03:00.052Z,94515.44
2023-01-19T03:05:50.929Z,94518.38
2023-01-19T03:08:34.272Z,94505.03
2023-01-19T03:11:06.747Z,94504.22
2023-01-19T03:13:48.670Z,94503.28
2023-01-19T03:16:23.661Z,94499.69
2023-01-19T03:18:57.144Z,94502.16
2023-01-19T03:21:29.509Z,94510.06
2023-01-19T03:24:04.245Z,94505.44
2023-01-19T03:26:40.412Z,94506.66
2023-01-19T03:29:14.887Z,94510.72
2023-01-19T03:31:48.910Z,94507.56
2023-01-19T03:34:22.024Z,94505.78
2023-01-19T03:36:57.119Z,94510.31
2023-01-19T03:39:28.948Z,94510.41
2023-01-19T03:42:02.997Z,94515.66
2023-01-19T03:44:37.741Z,94524.38
2023-01-19T03:47:11.292Z,94521.16
2023-01-19T03:49:42.989Z,94520.13
2023-01-19T03:52:14.103Z,94517.13
2023-01-19T03:54:43.878Z,94512.88
2023-01-19T03:57:13.439Z,94523.03
2023-01-19T03:59:44.264Z,94525.09
2023-01-19T04:02:13.746Z,94520.13
2023-01-19T04:04:43.519Z,94517.25
2023-01-19T04:07:13.206Z,94524.13
2023-01-19T04:09:42.909Z,94523.75
2023-01-19T04:12:12.292Z,94518.91
2023-01-19T04:14:43.147Z,94521.34
2023-01-19T04:17:12.569Z,94522.34
2023-01-19T04:19:43.160Z,94527.88
2023-01-19T04:22:12.713Z,94534.97
2023-01-19T04:24:42.169Z,94534.19
2023-01-19T04:27:12.593Z,94537.66
2023-01-19T04:29:43.433Z,94539.34
2023-01-19T04:32:15.084Z,94522.72
2023-01-19T04:34:44.588Z,94526.38
2023-01-19T04:37:14.180Z,94530.25
2023-01-19T04:39:43.516Z,94527.03
2023-01-19T04:42:12.924Z,94526.63
2023-01-19T04:44:43.880Z,94520.38
2023-01-19T04:47:13.300Z,94522.59
2023-01-19T04:49:42.779Z,94526.66
2023-01-19T04:52:12.282Z,94527.44
2023-01-19T04:54:41.756Z,94527.47
2023-01-19T04:57:11.183Z,94529.94
2023-01-19T04:59:40.601Z,94533.41
2023-01-19T05:02:11.916Z,94530.00
2023-01-19T05:04:41.421Z,94539.31
2023-01-19T05:07:11.111Z,94535.47
2023-01-19T05:09:40.693Z,94531.88
2023-01-19T05:12:10.272Z,94539.56
2023-01-19T05:14:39.693Z,94540.38
2023-01-19T05:17:09.167Z,94542.41
2023-01-19T05:19:39.939Z,94542.81
2023-01-19T05:22:09.526Z,94545.44
2023-01-19T05:24:38.931Z,94553.53
2023-01-19T05:27:08.490Z,94551.31
2023-01-19T05:29:37.912Z,94550.28
2023-01-19T05:32:07.418Z,94546.84
2023-01-19T05:34:37.009Z,94546.84
2023-01-19T05:37:07.851Z,94555.91
2023-01-19T05:39:37.298Z,94554.09
2023-01-19T05:42:07.418Z,94553.94
2023-01-19T05:44:36.902Z,94555.28
2023-01-19T05:47:06.577Z,94551.84
2023-01-19T05:49:36.397Z,94559.59
2023-01-19T05:52:07.617Z,94572.53
2023-01-19T05:54:37.133Z,94573.56
2023-01-19T05:57:06.694Z,94573.16
2023-01-19T05:59:36.568Z,94579.63
2023-01-19T06:02:06.213Z,94580.84
2023-01-19T06:04:35.732Z,94574.41
2023-01-19T06:07:07.569Z,94581.69
2023-01-19T06:09:37.018Z,94577.84
2023-01-19T06:12:08.036Z,94587.75
2023-01-19T06:14:38.024Z,94591.00
2023-01-19T06:17:07.956Z,94591.19
2023-01-19T06:19:37.424Z,94588.38
2023-01-19T06:22:08.236Z,94606.78
2023-01-19T06:24:37.659Z,94602.50
2023-01-19T06:27:07.364Z,94604.91
2023-01-19T06:29:36.805Z,94604.31
2023-01-19T06:32:07.552Z,94605.31
2023-01-19T06:34:36.945Z,94610.78
2023-01-19T06:37:07.698Z,94614.44
2023-01-19T06:39:37.953Z,94622.94
2023-01-19T06:42:07.621Z,94627.38
2023-01-19T06:44:37.078Z,94623.75
2023-01-19T06:47:15.369Z,94631.41
2023-01-19T06:49:45.636Z,94632.66
2023-01-19T06:52:18.282Z,94632.66
2023-01-19T06:54:48.216Z,94636.31
2023-01-19T06:57:19.175Z,94632.25
2023-01-19T06:59:48.970Z,94642.16
2023-01-19T07:02:26.197Z,94642.38
2023-01-19T07:04:57.984Z,94647.00
2023-01-19T07:07:28.944Z,94650.81
2023-01-19T07:09:58.347Z,94643.38
2023-01-19T07:12:28.011Z,94650.41
2023-01-19T07:14:57.366Z,94650.25
2023-01-19T07:17:26.846Z,94652.25
2023-01-19T07:19:56.198Z,94655.88
2023-01-19T07:22:25.669Z,94662.94
2023-01-19T07:24:56.739Z,94657.72
2023-01-19T07:27:28.029Z,94662.97
2023-01-19T07:29:57.555Z,94666.38
2023-01-19T07:32:27.347Z,94675.66
2023-01-19T07:34:56.766Z,94671.41
2023-01-19T07:37:26.237Z,94672.41
2023-01-19T07:39:57.048Z,94671.22
2023-01-19T07:42:26.526Z,94668.59
2023-01-19T07:44:55.902Z,94668.81
2023-01-19T07:47:25.350Z,94670.84
2023-01-19T07:49:54.730Z,94682.34
2023-01-19T07:52:24.128Z,94677.28
2023-01-19T07:54:53.521Z,94681.75
2023-01-19T07:57:24.293Z,94687.44
2023-01-19T07:59:53.760Z,94681.97
2023-01-19T08:02:23.323Z,94686.00
2023-01-19T08:04:52.943Z,94684.41
2023-01-19T08:07:22.336Z,94691.28
2023-01-19T08:09:51.681Z,94691.28
2023-01-19T08:12:21.057Z,94692.47
2023-01-19T08:14:52.049Z,94688.03
2023-01-19T08:17:21.618Z,94694.50
2023-01-19T08:19:51.130Z,94690.47
2023-01-19T08:22:20.502Z,94686.63
2023-01-19T08:24:50.517Z,94693.72
2023-01-19T08:27:23.255Z,94697.34
2023-01-19T08:29:54.704Z,94701.97
2023-01-19T08:32:24.138Z,94706.44
2023-01-19T08:34:53.545Z,94702.78
2023-01-19T08:37:22.923Z,94700.56
2023-01-19T08:39:53.867Z,94702.97
2023-01-19T08:42:23.521Z,94707.22
2023-01-19T08:44:58.191Z,94714.53
2023-01-19T08:47:28.234Z,94722.63
2023-01-19T08:49:57.658Z,94723.63
2023-01-19T08:52:29.242Z,94727.47
2023-01-19T08:54:58.585Z,94725.44
2023-01-19T08:57:29.106Z,94719.97
2023-01-19T08:59:59.850Z,94723.81
2023-01-19T09:02:29.746Z,94725.03
2023-01-19T09:04:59.195Z,94727.44
2023-01-19T09:07:29.843Z,94722.97
2023-01-19T09:10:00.922Z,94725.22
2023-01-19T09:12:30.441Z,94720.56
2023-01-19T09:15:01.308Z,94725.81
2023-01-19T09:17:30.796Z,94732.69
2023-01-19T09:20:00.301Z,94736.31
2023-01-19T09:22:30.021Z,94740.53
2023-01-19T09:24:59.907Z,94733.84
2023-01-19T09:27:29.285Z,94733.66
2023-01-19T09:30:00.134Z,94733.84
2023-01-19T09:32:29.527Z,94729.59
2023-01-19T09:34:59.010Z,94731.59
2023-01-19T09:37:28.396Z,94729.72
2023-01-19T09:39:57.846Z,94725.84
2023-01-19T09:42:39.522Z,94720.94
2023-01-19T09:45:20.583Z,94721.28
2023-01-19T09:47:51.984Z,94715.56
2023-01-19T09:50:28.648Z,94716.28
2023-01-19T09:53:07.275Z,94716.22
2023-01-19T09:55:36.727Z,94712.97
2023-01-19T09:58:12.573Z,94722.03
2023-01-19T10:00:47.583Z,94720.19
2023-01-19T10:03:20.554Z,94720.59
2023-01-19T10:05:56.839Z,94713.44
2023-01-19T10:08:40.858Z,94721.34
2023-01-19T10:11:41.833Z,94721.09
2023-01-19T10:14:29.343Z,94719.50
2023-01-19T10:17:14.931Z,94727.38
2023-01-19T10:19:50.668Z,94723.84
2023-01-19T10:22:25.512Z,94726.22
2023-01-19T10:25:00.514Z,94721.72
2023-01-19T10:27:34.207Z,94725.09
2023-01-19T10:30:04.282Z,94718.28
2023-01-19T10:32:36.854Z,94721.53
2023-01-19T10:35:21.838Z,94719.28
2023-01-19T10:37:53.028Z,94714.75
2023-01-19T10:40:33.928Z,94712.00
2023-01-19T10:43:38.201Z,94711.78
2023-01-19T10:46:18.996Z,94712.97
2023-01-19T10:48:54.685Z,94704.47
2023-01-19T10:51:24.380Z,94705.00
2023-01-19T10:54:04.062Z,94704.19
2023-01-19T10:56:37.306Z,94704.56
2023-01-19T10:59:10.586Z,94702.66
2023-01-19T11:01:40.045Z,94697.06
2023-01-19T11:04:30.565Z,94701.69
2023-01-19T11:07:19.126Z,94701.63
2023-01-19T11:09:49.407Z,94711.09
2023-01-19T11:12:22.577Z,94698.75
2023-01-19T11:14:53.823Z,94710.13
2023-01-19T11:17:26.787Z,94709.06
2023-01-19T11:20:03.657Z,94702.75
2023-01-19T11:22:34.794Z,94698.19
2023-01-19T11:25:07.181Z,94705.44
2023-01-19T11:27:38.354Z,94695.53
2023-01-19T11:30:21.319Z,94700.16
2023-01-19T11:32:50.970Z,94698.47
2023-01-19T11:35:42.742Z,94696.19
2023-01-19T11:38:23.134Z,94691.63
2023-01-19T11:40:56.965Z,94688.31
2023-01-19T11:43:43.560Z,94684.41
2023-01-19T11:46:18.797Z,94685.53
2023-01-19T11:48:57.341Z,94681.34
2023-01-19T11:51:36.775Z,94679.38
2023-01-19T11:54:21.110Z,94673.28
2023-01-19T11:56:52.175Z,94670.53
2023-01-19T11:59:24.825Z,94671.78
2023-01-19T12:01:59.077Z,94670.41
2023-01-19T12:04:36.067Z,94665.69
2023-01-19T12:07:10.649Z,94665.25
2023-01-19T12:09:45.347Z,94660.31
2023-01-19T12:12:28.718Z,94661.44
2023-01-19T12:15:05.479Z,94669.28
2023-01-19T12:17:41.057Z,94665.19
2023-01-19T12:20:26.537Z,94664.06
2023-01-19T12:23:18.888Z,94667.22
2023-01-19T12:26:11.355Z,94666.28
2023-01-19T12:28:45.697Z,94664.66
2023-01-19T12:31:19.011Z,94666.50
2023-01-19T12:33:49.236Z,94651.34
2023-01-19T12:36:40.273Z,94653.81
2023-01-19T12:39:21.059Z,94651.50
2023-01-19T12:42:13.099Z,94647.84
2023-01-19T12:44:44.046Z,94650.13
2023-01-19T12:47:24.264Z,94651.16
2023-01-19T12:50:03.167Z,94653.22
2023-01-19T12:52:36.117Z,94656.94
2023-01-19T12:55:24.424Z,94656.25
2023-01-19T12:58:03.989Z,94648.66
2023-01-19T13:00:40.152Z,94648.06
2023-01-19T13:03:59.611Z,94651.16
2023-01-19T13:07:10.418Z,94649.22
2023-01-19T13:09:42.540Z,94648.28
2023-01-19T13:12:25.968Z,94660.63
2023-01-19T13:15:34.246Z,94653.47
2023-01-19T13:18:04.574Z,94656.78
2023-01-19T13:20:45.713Z,94652.78
2023-01-19T13:23:26.257Z,94659.31
2023-01-19T13:26:05.692Z,94656.44
2023-01-19T13:28:44.468Z,94654.03
2023-01-19T13:31:15.355Z,94656.22
2023-01-19T13:33:51.832Z,94649.88
2023-01-19T13:36:29.149Z,94661.16
2023-01-19T13:39:04.658Z,94658.47
2023-01-19T13:41:40.384Z,94660.81
2023-01-19T13:44:21.375Z,94668.38
2023-01-19T13:46:53.658Z,94664.63
2023-01-19T13:49:31.496Z,94670.91
2023-01-19T13:52:17.775Z,94666.31
2023-01-19T13:54:53.168Z,94671.63
2023-01-19T13:57:26.553Z,94671.56
2023-01-19T14:00:18.900Z,94671.56
2023-01-19T14:03:01.713Z,94671.44
2023-01-19T14:05:52.651Z,94668.56
2023-01-19T14:13:01.339Z,94671.44
2023-01-19T14:15:33.752Z,94674.44
2023-01-19T14:18:23.115Z,94679.50
2023-01-19T14:21:04.032Z,94670.97
2023-01-19T14:23:48.436Z,94672.16
2023-01-19T14:26:49.483Z,94670.63
2023-01-19T14:29:28.874Z,94672.69
2023-01-19T14:32:17.924Z,94678.84
2023-01-19T14:34:51.088Z,94687.16
2023-01-19T14:37:26.743Z,94675.97
2023-01-19T14:40:04.648Z,94673.19
2023-01-19T14:42:39.433Z,94681.13
2023-01-19T14:45:21.012Z,94677.66
2023-01-19T14:47:59.428Z,94685.16
2023-01-19T14:50:33.030Z,94681.63
2023-01-19T14:53:07.255Z,94690.59
2023-01-19T14:55:45.486Z,94688.53
2023-01-19T14:58:20.630Z,94684.34
2023-01-19T15:00:55.567Z,94692.72
2023-01-19T15:03:38.576Z,94698.81
2023-01-19T15:06:14.737Z,94701.19
2023-01-19T15:08:46.580Z,94701.78
2023-01-19T15:11:24.016Z,94711.16
2023-01-19T15:13:55.091Z,94700.31
2023-01-19T15:16:25.584Z,94704.56
2023-01-19T15:18:55.273Z,94701.03
2023-01-19T15:21:26.711Z,94709.34
2023-01-19T15:23:58.669Z,94706.16
2023-01-19T15:26:28.927Z,94710.28
2023-01-19T15:28:58.609Z,94704.63
2023-01-19T15:31:28.356Z,94707.41
2023-01-19T15:33:58.230Z,94711.31
2023-01-19T15:36:27.773Z,94707.63
2023-01-19T15:38:58.744Z,94702.44
2023-01-19T15:41:30.880Z,94703.47
2023-01-19T15:44:01.514Z,94712.41
2023-01-19T15:46:31.155Z,94713.13
2023-01-19T15:49:00.687Z,94720.47
2023-01-19T15:51:30.395Z,94721.75
2023-01-19T15:54:01.490Z,94716.09
2023-01-19T15:56:32.786Z,94718.72
2023-01-19T15:59:03.359Z,94713.66
2023-01-19T16:02:43.453Z,94713.56
2023-01-19T16:05:13.469Z,94709.03
2023-01-19T16:07:43.348Z,94712.53
2023-01-19T16:10:16.854Z,94716.84
2023-01-19T16:12:47.822Z,94711.19
2023-01-19T16:16:31.469Z,94718.69
2023-01-19T16:19:03.382Z,94717.97
2023-01-19T16:21:33.133Z,94724.06
2023-01-19T16:24:02.837Z,94722.66
2023-01-19T16:26:36.765Z,94724.72
2023-01-19T16:29:10.699Z,94717.44
2023-01-19T16:31:43.384Z,94727.19
2023-01-19T16:34:13.501Z,94726.97
2023-01-19T16:36:43.914Z,94719.47
2023-01-19T16:39:16.495Z,94725.78
2023-01-19T16:41:47.807Z,94722.97
2023-01-19T16:44:18.627Z,94732.53
2023-01-19T16:46:50.067Z,94727.63
2023-01-19T16:49:24.027Z,94730.69
2023-01-19T16:51:54.856Z,94730.69
2023-01-19T16:54:26.676Z,94728.84
2023-01-19T16:56:59.065Z,94726.66
2023-01-19T16:59:29.364Z,94730.91
2023-01-19T17:01:59.303Z,94730.47
2023-01-19T17:04:29.692Z,94733.75
2023-01-19T17:06:59.434Z,94722.81
2023-01-19T17:09:29.186Z,94720.03
2023-01-19T17:12:00.312Z,94717.63
2023-01-19T17:14:30.153Z,94729.59
2023-01-19T17:17:02.900Z,94733.59
2023-01-19T17:22:46.465Z,94731.84
2023-01-19T17:23:15.136Z,94721.66
2023-01-19T17:25:44.880Z,94729.38
2023-01-19T17:28:15.966Z,94725.09
2023-01-19T17:30:45.642Z,94725.16
2023-01-19T17:33:15.312Z,94731.66
2023-01-19T17:35:46.852Z,94728.19
2023-01-19T17:38:16.633Z,94725.38
2023-01-19T17:40:46.292Z,94726.22
2023-01-19T17:43:17.377Z,94724.81
2023-01-19T17:45:47.146Z,94730.09
2023-01-19T17:48:17.467Z,94717.75
2023-01-19T17:50:47.197Z,94721.81
2023-01-19T17:53:16.905Z,94716.75
2023-01-19T17:55:46.735Z,94722.59
2023-01-19T17:58:18.014Z,94724.22
2023-01-19T18:00:47.862Z,94725.47
2023-01-19T18:03:17.678Z,94727.88
2023-01-19T18:05:55.137Z,94724.88
2023-01-19T18:08:24.903Z,94732.78
2023-01-19T18:10:55.685Z,94735.06
2023-01-19T18:13:28.141Z,94734.59
2023-01-19T18:16:01.599Z,94735.06
2023-01-19T18:18:31.983Z,94732.44
2023-01-19T18:21:03.641Z,94734.91
2023-01-19T18:23:33.773Z,94727.19
2023-01-19T18:26:08.086Z,94735.31
2023-01-19T18:28:39.411Z,94726.75
2023-01-19T18:31:11.163Z,94728.59
2023-01-19T18:33:42.358Z,94735.09
2023-01-19T18:36:12.673Z,94730.63
2023-01-19T18:38:43.444Z,94730.25
2023-01-19T18:41:15.731Z,94735.09
2023-01-19T18:43:47.825Z,94733.28
2023-01-19T18:46:18.456Z,94742.22
2023-01-19T18:48:48.318Z,94740.00
2023-01-19T18:51:18.830Z,94731.66
2023-01-19T18:53:48.598Z,94738.75
2023-01-19T18:56:18.579Z,94739.38
2023-01-19T18:58:49.966Z,94736.56
2023-01-19T19:01:24.802Z,94741.63
2023-01-19T19:03:56.606Z,94741.41
2023-01-19T19:06:28.004Z,94734.25
2023-01-19T19:09:00.273Z,94740.56
2023-01-19T19:11:30.441Z,94742.81
2023-01-19T19:14:04.159Z,94748.91
2023-01-19T19:16:36.642Z,94747.28
2023-01-19T19:19:08.502Z,94743.22
2023-01-19T19:21:38.196Z,94740.22
2023-01-19T19:24:09.064Z,94740.22
2023-01-19T19:26:38.830Z,94729.88
2023-01-19T19:29:10.177Z,94740.63
2023-01-19T19:31:40.283Z,94736.75
2023-01-19T19:34:12.424Z,94740.59
2023-01-19T19:36:42.379Z,94728.31
2023-01-19T19:39:13.132Z,94736.34
2023-01-19T19:41:42.874Z,94735.63
2023-01-19T19:44:13.988Z,94731.16
2023-01-19T19:46:43.691Z,94736.91
2023-01-19T19:49:13.399Z,94735.69
2023-01-19T19:51:43.370Z,94736.50
2023-01-19T19:54:13.019Z,94738.56
2023-01-19T19:56:42.832Z,94728.81
2023-01-19T19:59:14.593Z,94723.31
2023-01-19T20:01:45.275Z,94731.63
2023-01-19T20:04:19.937Z,94730.22
2023-01-19T20:06:50.616Z,94728.38
2023-01-19T20:09:20.295Z,94725.38
2023-01-19T20:11:50.226Z,94724.16
2023-01-19T20:14:22.508Z,94726.00
2023-01-19T20:16:52.752Z,94724.41
2023-01-19T20:19:22.453Z,94731.69
2023-01-19T20:21:52.302Z,94731.53
2023-01-19T20:24:22.768Z,94729.69
2023-01-19T20:26:56.240Z,94729.09
2023-01-19T20:29:27.147Z,94737.00
2023-01-19T20:31:57.970Z,94739.84
2023-01-19T20:34:33.380Z,94736.63
2023-01-19T20:37:06.122Z,94740.28
2023-01-19T20:39:37.205Z,94730.75
2023-01-19T20:42:11.227Z,94734.78
2023-01-19T20:44:42.550Z,94741.69
2023-01-19T20:47:12.287Z,94734.16
2023-01-19T20:49:42.303Z,94731.09
2023-01-19T20:52:12.268Z,94734.75
2023-01-19T20:54:42.049Z,94736.00
2023-01-19T20:57:11.865Z,94739.06
2023-01-19T20:59:44.110Z,94737.22
2023-01-19T21:02:15.119Z,94730.53
2023-01-19T21:04:45.042Z,94732.59
2023-01-19T21:07:14.653Z,94738.66
2023-01-19T21:09:44.333Z,94730.41
2023-01-19T21:12:16.089Z,94728.78
2023-01-19T21:14:47.344Z,94725.53
2023-01-19T21:17:17.065Z,94729.41
2023-01-19T21:19:48.392Z,94725.16
2023-01-19T21:22:18.221Z,94729.63
2023-01-19T21:24:48.698Z,94737.31
2023-01-19T21:27:18.402Z,94740.16
2023-01-19T21:29:50.700Z,94736.94
2023-01-19T21:32:20.415Z,94730.47
2023-01-19T21:34:50.195Z,94735.13
2023-01-19T21:37:19.931Z,94730.06
2023-01-19T21:39:49.696Z,94728.66
2023-01-19T21:42:19.382Z,94729.28
2023-01-19T21:44:52.064Z,94726.50
2023-01-19T21:47:21.784Z,94733.81
2023-01-19T21:49:51.457Z,94732.81
2023-01-19T21:52:21.321Z,94746.41
2023-01-19T21:54:52.051Z,94743.19
2023-01-19T21:57:21.703Z,94744.19
2023-01-19T21:59:52.795Z,94747.84
2023-01-19T22:02:37.572Z,94753.31
2023-01-19T22:05:09.776Z,94759.41
2023-01-19T22:07:39.600Z,94761.44
2023-01-19T22:10:12.647Z,94764.88
2023-01-19T22:12:42.516Z,94770.97
2023-01-19T22:15:14.376Z,94765.47
2023-01-19T22:17:45.419Z,94776.84
2023-01-19T22:20:15.381Z,94781.09
2023-01-19T22:22:45.154Z,94782.69
2023-01-19T22:25:15.785Z,94780.88
2023-01-19T22:27:45.528Z,94774.59
2023-01-19T22:30:18.031Z,94785.13
2023-01-19T22:32:48.387Z,94783.50
2023-01-19T22:35:18.242Z,94784.72
2023-01-19T22:37:47.951Z,94789.19
2023-01-19T22:40:20.191Z,94781.69
2023-01-19T22:42:50.912Z,94780.69
2023-01-19T22:45:22.052Z,94785.16
2023-01-19T22:47:51.842Z,94780.09
2023-01-19T22:50:23.805Z,94783.72
2023-01-19T22:52:57.909Z,94773.66
2023-01-19T22:55:30.822Z,94777.28
2023-01-19T22:58:02.540Z,94782.78
2023-01-19T23:00:33.690Z,94773.88
2023-01-19T23:03:03.393Z,94780.16
2023-01-19T23:05:36.920Z,94780.16
2023-01-19T23:08:07.292Z,94778.13
2023-01-19T23:10:40.666Z,94778.72
2023-01-19T23:13:10.304Z,94785.19
2023-01-19T23:15:41.686Z,94774.06
2023-01-19T23:18:11.482Z,94775.28
2023-01-19T23:20:41.314Z,94777.09
2023-01-19T23:23:11.345Z,94777.31
2023-01-19T23:25:42.547Z,94778.31
2023-01-19T23:28:12.410Z,94775.69
2023-01-19T23:30:46.787Z,94779.13
2023-01-19T23:33:16.497Z,94778.31
2023-01-19T23:35:46.203Z,94778.13
2023-01-19T23:38:15.998Z,94777.91
2023-01-19T23:40:45.697Z,94778.72
2023-01-19T23:43:16.073Z,94778.94
2023-01-19T23:45:47.119Z,94778.31
2023-01-19T23:48:16.793Z,94783.00
2023-01-19T23:50:46.503Z,94780.97
2023-01-19T23:53:16.203Z,94788.06
2023-01-19T23:55:45.892Z,94784.00
2023-01-19T23:58:15.631Z,94779.16
